Maysel, West Virginia
Current Conditions -  °F | °C
As of 4:54 PM on Monday 26 Jan 2015 (Local Time) from KCRW Reporting Station
Light Snow Light Snow  
Wind Chill: 18°   Ceiling: 1100
Heat Index: 27°   Visibility: 6mi
Dew Point: 22°   Wind: 9mph
Humidity: 81%   Direction: 270°W
Pressure: 29.83"   Gusts: NA
Location:  38.49°N, 81.11°W
Report Text: KCRW 262154Z 27008KT 6SM -SN OVC011 M03/M06 A2983 RMK AO2 SLP108 P0000 T10281056
Loading
Personal Weather Stations






























Interactive Weather Map New forecast layout! Learn more

10-Day Weather Forecast

Advertisements
Track Severe Weather on mobile